sensor_id;sensor_type;location;lat;lon;timestamp;P1;durP1;ratioP1;P2;durP2;ratioP2
62863;SDS011;48954;59.950;11.014;2023-03-11T00:00:42;17.00;;;6.50;;
62863;SDS011;48954;59.950;11.014;2023-03-11T00:03:24;17.50;;;7.30;;
62863;SDS011;48954;59.950;11.014;2023-03-11T00:05:52;12.20;;;6.20;;
62863;SDS011;48954;59.950;11.014;2023-03-11T00:08:58;8.40;;;3.50;;
62863;SDS011;48954;59.950;11.014;2023-03-11T00:11:27;12.60;;;5.30;;
62863;SDS011;48954;59.950;11.014;2023-03-11T00:13:58;6.00;;;2.40;;
62863;SDS011;48954;59.950;11.014;2023-03-11T00:16:24;9.60;;;4.50;;
62863;SDS011;48954;59.950;11.014;2023-03-11T00:18:52;21.40;;;7.80;;
62863;SDS011;48954;59.950;11.014;2023-03-11T00:21:22;20.70;;;7.80;;
62863;SDS011;48954;59.950;11.014;2023-03-11T00:23:50;9.20;;;3.40;;
62863;SDS011;48954;59.950;11.014;2023-03-11T00:26:17;5.60;;;2.90;;
62863;SDS011;48954;59.950;11.014;2023-03-11T00:28:45;9.30;;;3.50;;
62863;SDS011;48954;59.950;11.014;2023-03-11T00:31:14;13.80;;;5.50;;
62863;SDS011;48954;59.950;11.014;2023-03-11T00:33:49;14.80;;;6.10;;
62863;SDS011;48954;59.950;11.014;2023-03-11T00:36:20;13.00;;;5.60;;
62863;SDS011;48954;59.950;11.014;2023-03-11T00:38:52;24.70;;;9.40;;
62863;SDS011;48954;59.950;11.014;2023-03-11T00:41:22;23.80;;;9.40;;
62863;SDS011;48954;59.950;11.014;2023-03-11T00:43:57;17.50;;;7.00;;
62863;SDS011;48954;59.950;11.014;2023-03-11T00:46:27;7.70;;;3.30;;
62863;SDS011;48954;59.950;11.014;2023-03-11T00:48:55;7.80;;;4.10;;
62863;SDS011;48954;59.950;11.014;2023-03-11T00:51:22;6.00;;;3.10;;
62863;SDS011;48954;59.950;11.014;2023-03-11T00:54:02;10.50;;;4.70;;
62863;SDS011;48954;59.950;11.014;2023-03-11T00:56:29;18.90;;;7.40;;
62863;SDS011;48954;59.950;11.014;2023-03-11T00:58:58;23.40;;;8.60;;
62863;SDS011;48954;59.950;11.014;2023-03-11T01:01:25;19.00;;;7.80;;
62863;SDS011;48954;59.950;11.014;2023-03-11T01:03:54;15.30;;;6.80;;
62863;SDS011;48954;59.950;11.014;2023-03-11T01:06:24;20.40;;;8.70;;
62863;SDS011;48954;59.950;11.014;2023-03-11T01:08:51;18.50;;;6.90;;
62863;SDS011;48954;59.950;11.014;2023-03-11T01:11:18;16.50;;;6.70;;
62863;SDS011;48954;59.950;11.014;2023-03-11T01:13:47;17.20;;;6.40;;
62863;SDS011;48954;59.950;11.014;2023-03-11T01:16:18;15.20;;;6.60;;
62863;SDS011;48954;59.950;11.014;2023-03-11T01:18:50;7.40;;;2.70;;
62863;SDS011;48954;59.950;11.014;2023-03-11T01:21:21;14.00;;;5.30;;
62863;SDS011;48954;59.950;11.014;2023-03-11T01:26:22;7.30;;;3.40;;
62863;SDS011;48954;59.950;11.014;2023-03-11T01:28:51;12.70;;;4.70;;
62863;SDS011;48954;59.950;11.014;2023-03-11T01:31:31;18.40;;;6.60;;
62863;SDS011;48954;59.950;11.014;2023-03-11T01:34:03;11.40;;;4.70;;
62863;SDS011;48954;59.950;11.014;2023-03-11T01:36:37;17.90;;;7.60;;
62863;SDS011;48954;59.950;11.014;2023-03-11T01:39:03;13.80;;;7.40;;
62863;SDS011;48954;59.950;11.014;2023-03-11T01:41:44;11.80;;;5.50;;
62863;SDS011;48954;59.950;11.014;2023-03-11T01:44:12;12.20;;;4.60;;
62863;SDS011;48954;59.950;11.014;2023-03-11T01:49:36;23.40;;;7.30;;
62863;SDS011;48954;59.950;11.014;2023-03-11T01:52:29;10.60;;;3.20;;
62863;SDS011;48954;59.950;11.014;2023-03-11T01:54:58;8.60;;;3.40;;
62863;SDS011;48954;59.950;11.014;2023-03-11T01:57:27;17.10;;;5.10;;
62863;SDS011;48954;59.950;11.014;2023-03-11T02:00:09;3.60;;;1.30;;
62863;SDS011;48954;59.950;11.014;2023-03-11T02:02:47;12.80;;;3.00;;
62863;SDS011;48954;59.950;11.014;2023-03-11T02:05:27;11.80;;;4.80;;
62863;SDS011;48954;59.950;11.014;2023-03-11T02:08:05;10.30;;;4.20;;
62863;SDS011;48954;59.950;11.014;2023-03-11T02:10:33;11.70;;;4.60;;
62863;SDS011;48954;59.950;11.014;2023-03-11T02:13:03;3.70;;;1.60;;
62863;SDS011;48954;59.950;11.014;2023-03-11T02:15:32;5.80;;;2.30;;
62863;SDS011;48954;59.950;11.014;2023-03-11T02:18:00;8.00;;;3.00;;
62863;SDS011;48954;59.950;11.014;2023-03-11T02:20:48;7.40;;;3.50;;
62863;SDS011;48954;59.950;11.014;2023-03-11T02:23:20;7.50;;;2.60;;
62863;SDS011;48954;59.950;11.014;2023-03-11T02:26:08;7.50;;;2.00;;
62863;SDS011;48954;59.950;11.014;2023-03-11T02:28:43;6.00;;;2.70;;
62863;SDS011;48954;59.950;11.014;2023-03-11T02:31:16;6.60;;;2.10;;
62863;SDS011;48954;59.950;11.014;2023-03-11T02:33:44;9.00;;;3.20;;
62863;SDS011;48954;59.950;11.014;2023-03-11T02:36:34;5.50;;;3.10;;
62863;SDS011;48954;59.950;11.014;2023-03-11T02:39:10;11.00;;;3.90;;
62863;SDS011;48954;59.950;11.014;2023-03-11T02:41:53;3.80;;;1.70;;
62863;SDS011;48954;59.950;11.014;2023-03-11T02:44:28;3.60;;;1.60;;
62863;SDS011;48954;59.950;11.014;2023-03-11T02:47:09;14.60;;;5.80;;
62863;SDS011;48954;59.950;11.014;2023-03-11T02:49:42;20.40;;;5.00;;
62863;SDS011;48954;59.950;11.014;2023-03-11T02:52:20;5.00;;;1.50;;
62863;SDS011;48954;59.950;11.014;2023-03-11T02:54:51;8.00;;;3.70;;
62863;SDS011;48954;59.950;11.014;2023-03-11T02:57:19;13.80;;;3.90;;
62863;SDS011;48954;59.950;11.014;2023-03-11T03:00:14;7.70;;;3.70;;
62863;SDS011;48954;59.950;11.014;2023-03-11T03:02:44;10.70;;;3.90;;
62863;SDS011;48954;59.950;11.014;2023-03-11T03:05:11;8.50;;;2.20;;
62863;SDS011;48954;59.950;11.014;2023-03-11T03:07:40;11.40;;;3.30;;
62863;SDS011;48954;59.950;11.014;2023-03-11T03:10:30;9.90;;;3.60;;
62863;SDS011;48954;59.950;11.014;2023-03-11T03:12:58;4.40;;;1.70;;
62863;SDS011;48954;59.950;11.014;2023-03-11T03:15:24;4.60;;;2.70;;
62863;SDS011;48954;59.950;11.014;2023-03-11T03:17:50;5.30;;;2.30;;
62863;SDS011;48954;59.950;11.014;2023-03-11T03:20:18;3.40;;;1.50;;
62863;SDS011;48954;59.950;11.014;2023-03-11T03:22:44;8.30;;;3.60;;
62863;SDS011;48954;59.950;11.014;2023-03-11T03:25:12;13.50;;;4.40;;
62863;SDS011;48954;59.950;11.014;2023-03-11T03:27:45;8.50;;;3.60;;
62863;SDS011;48954;59.950;11.014;2023-03-11T03:30:11;12.60;;;4.60;;
62863;SDS011;48954;59.950;11.014;2023-03-11T03:32:37;10.30;;;2.80;;
62863;SDS011;48954;59.950;11.014;2023-03-11T03:35:06;7.10;;;2.40;;
62863;SDS011;48954;59.950;11.014;2023-03-11T03:37:35;13.10;;;4.90;;
62863;SDS011;48954;59.950;11.014;2023-03-11T03:40:06;13.80;;;4.60;;
62863;SDS011;48954;59.950;11.014;2023-03-11T03:42:34;7.00;;;3.60;;
62863;SDS011;48954;59.950;11.014;2023-03-11T03:45:02;10.00;;;2.30;;
62863;SDS011;48954;59.950;11.014;2023-03-11T03:47:35;13.80;;;3.90;;
62863;SDS011;48954;59.950;11.014;2023-03-11T03:50:05;2.90;;;1.20;;
62863;SDS011;48954;59.950;11.014;2023-03-11T03:52:34;11.60;;;3.10;;
62863;SDS011;48954;59.950;11.014;2023-03-11T03:55:02;4.10;;;1.80;;
62863;SDS011;48954;59.950;11.014;2023-03-11T03:57:32;5.90;;;2.80;;
62863;SDS011;48954;59.950;11.014;2023-03-11T03:59:58;8.50;;;3.40;;
62863;SDS011;48954;59.950;11.014;2023-03-11T04:02:24;6.10;;;2.30;;
62863;SDS011;48954;59.950;11.014;2023-03-11T04:04:51;6.20;;;2.30;;
62863;SDS011;48954;59.950;11.014;2023-03-11T04:07:21;11.90;;;3.80;;
62863;SDS011;48954;59.950;11.014;2023-03-11T04:09:48;5.30;;;2.60;;
62863;SDS011;48954;59.950;11.014;2023-03-11T04:12:14;7.50;;;3.50;;
62863;SDS011;48954;59.950;11.014;2023-03-11T04:14:40;5.30;;;1.60;;
62863;SDS011;48954;59.950;11.014;2023-03-11T04:17:07;4.50;;;1.00;;
62863;SDS011;48954;59.950;11.014;2023-03-11T04:19:35;1.60;;;0.70;;
62863;SDS011;48954;59.950;11.014;2023-03-11T04:22:01;4.20;;;1.60;;
62863;SDS011;48954;59.950;11.014;2023-03-11T04:24:27;3.50;;;1.50;;
62863;SDS011;48954;59.950;11.014;2023-03-11T04:26:53;3.90;;;1.90;;
62863;SDS011;48954;59.950;11.014;2023-03-11T04:29:20;6.50;;;2.50;;
62863;SDS011;48954;59.950;11.014;2023-03-11T04:31:46;7.40;;;2.50;;
62863;SDS011;48954;59.950;11.014;2023-03-11T04:34:12;5.10;;;2.20;;
62863;SDS011;48954;59.950;11.014;2023-03-11T04:36:38;4.40;;;2.30;;
62863;SDS011;48954;59.950;11.014;2023-03-11T04:39:04;7.30;;;2.70;;
62863;SDS011;48954;59.950;11.014;2023-03-11T04:41:30;7.60;;;3.10;;
62863;SDS011;48954;59.950;11.014;2023-03-11T04:43:58;10.00;;;2.50;;
62863;SDS011;48954;59.950;11.014;2023-03-11T04:46:25;5.90;;;1.80;;
62863;SDS011;48954;59.950;11.014;2023-03-11T04:48:51;7.80;;;2.30;;
62863;SDS011;48954;59.950;11.014;2023-03-11T04:51:18;1.70;;;0.50;;
62863;SDS011;48954;59.950;11.014;2023-03-11T04:53:44;2.20;;;1.10;;
62863;SDS011;48954;59.950;11.014;2023-03-11T04:56:11;2.80;;;1.40;;
62863;SDS011;48954;59.950;11.014;2023-03-11T04:58:37;4.80;;;1.60;;
62863;SDS011;48954;59.950;11.014;2023-03-11T05:01:03;2.00;;;0.90;;
62863;SDS011;48954;59.950;11.014;2023-03-11T05:03:29;1.20;;;0.40;;
62863;SDS011;48954;59.950;11.014;2023-03-11T05:05:55;5.30;;;2.00;;
62863;SDS011;48954;59.950;11.014;2023-03-11T05:08:23;7.40;;;2.70;;
62863;SDS011;48954;59.950;11.014;2023-03-11T05:10:50;4.70;;;1.80;;
62863;SDS011;48954;59.950;11.014;2023-03-11T05:13:17;4.10;;;2.00;;
62863;SDS011;48954;59.950;11.014;2023-03-11T05:15:44;3.90;;;1.80;;
62863;SDS011;48954;59.950;11.014;2023-03-11T05:18:12;2.40;;;1.00;;
62863;SDS011;48954;59.950;11.014;2023-03-11T05:20:40;2.60;;;1.00;;
62863;SDS011;48954;59.950;11.014;2023-03-11T05:23:06;42.60;;;12.70;;
62863;SDS011;48954;59.950;11.014;2023-03-11T05:25:32;43.90;;;12.40;;
62863;SDS011;48954;59.950;11.014;2023-03-11T05:27:58;23.10;;;8.00;;
62863;SDS011;48954;59.950;11.014;2023-03-11T05:30:24;24.10;;;5.70;;
62863;SDS011;48954;59.950;11.014;2023-03-11T05:32:50;20.70;;;5.90;;
62863;SDS011;48954;59.950;11.014;2023-03-11T05:35:16;7.30;;;2.30;;
62863;SDS011;48954;59.950;11.014;2023-03-11T05:37:43;6.30;;;1.60;;
62863;SDS011;48954;59.950;11.014;2023-03-11T05:40:09;17.00;;;5.40;;
62863;SDS011;48954;59.950;11.014;2023-03-11T05:42:37;16.70;;;5.00;;
62863;SDS011;48954;59.950;11.014;2023-03-11T05:45:03;14.00;;;3.90;;
62863;SDS011;48954;59.950;11.014;2023-03-11T05:47:29;3.00;;;1.30;;
62863;SDS011;48954;59.950;11.014;2023-03-11T05:49:55;5.30;;;1.70;;
62863;SDS011;48954;59.950;11.014;2023-03-11T05:52:21;6.80;;;2.70;;
62863;SDS011;48954;59.950;11.014;2023-03-11T05:54:50;8.80;;;4.50;;
62863;SDS011;48954;59.950;11.014;2023-03-11T05:57:17;3.10;;;1.30;;
62863;SDS011;48954;59.950;11.014;2023-03-11T05:59:44;4.80;;;2.70;;
62863;SDS011;48954;59.950;11.014;2023-03-11T06:02:10;17.10;;;4.10;;
62863;SDS011;48954;59.950;11.014;2023-03-11T06:04:36;9.80;;;4.00;;
62863;SDS011;48954;59.950;11.014;2023-03-11T06:07:02;5.30;;;2.30;;
62863;SDS011;48954;59.950;11.014;2023-03-11T06:09:29;3.10;;;1.60;;
62863;SDS011;48954;59.950;11.014;2023-03-11T06:11:55;12.10;;;5.00;;
62863;SDS011;48954;59.950;11.014;2023-03-11T06:14:21;2.70;;;1.60;;
62863;SDS011;48954;59.950;11.014;2023-03-11T06:16:46;7.80;;;3.30;;
62863;SDS011;48954;59.950;11.014;2023-03-11T06:19:13;8.50;;;3.10;;
62863;SDS011;48954;59.950;11.014;2023-03-11T06:21:39;3.20;;;1.60;;
62863;SDS011;48954;59.950;11.014;2023-03-11T06:24:05;2.80;;;1.30;;
62863;SDS011;48954;59.950;11.014;2023-03-11T06:26:32;2.70;;;1.10;;
62863;SDS011;48954;59.950;11.014;2023-03-11T06:28:58;4.00;;;1.60;;
62863;SDS011;48954;59.950;11.014;2023-03-11T06:31:24;4.40;;;0.80;;
62863;SDS011;48954;59.950;11.014;2023-03-11T06:33:51;2.70;;;1.30;;
62863;SDS011;48954;59.950;11.014;2023-03-11T06:36:18;4.70;;;2.20;;
62863;SDS011;48954;59.950;11.014;2023-03-11T06:38:45;2.30;;;1.50;;
62863;SDS011;48954;59.950;11.014;2023-03-11T06:41:11;3.20;;;1.40;;
62863;SDS011;48954;59.950;11.014;2023-03-11T06:43:38;4.90;;;1.70;;
62863;SDS011;48954;59.950;11.014;2023-03-11T06:46:09;3.00;;;1.00;;
62863;SDS011;48954;59.950;11.014;2023-03-11T06:48:37;3.30;;;1.40;;
62863;SDS011;48954;59.950;11.014;2023-03-11T06:51:03;5.20;;;1.80;;
62863;SDS011;48954;59.950;11.014;2023-03-11T06:53:29;4.40;;;1.20;;
62863;SDS011;48954;59.950;11.014;2023-03-11T06:56:09;4.80;;;1.10;;
62863;SDS011;48954;59.950;11.014;2023-03-11T06:58:37;4.50;;;1.40;;
62863;SDS011;48954;59.950;11.014;2023-03-11T07:01:09;2.10;;;1.10;;
62863;SDS011;48954;59.950;11.014;2023-03-11T07:03:37;7.20;;;2.40;;
62863;SDS011;48954;59.950;11.014;2023-03-11T07:06:05;6.30;;;2.00;;
62863;SDS011;48954;59.950;11.014;2023-03-11T07:08:33;8.30;;;2.40;;
62863;SDS011;48954;59.950;11.014;2023-03-11T07:11:03;2.50;;;0.70;;
62863;SDS011;48954;59.950;11.014;2023-03-11T07:13:35;9.00;;;2.90;;
62863;SDS011;48954;59.950;11.014;2023-03-11T07:16:02;8.20;;;2.30;;
62863;SDS011;48954;59.950;11.014;2023-03-11T07:18:30;5.20;;;1.70;;
62863;SDS011;48954;59.950;11.014;2023-03-11T07:20:57;5.60;;;1.70;;
62863;SDS011;48954;59.950;11.014;2023-03-11T07:23:23;3.70;;;1.40;;
62863;SDS011;48954;59.950;11.014;2023-03-11T07:25:49;4.00;;;1.30;;
62863;SDS011;48954;59.950;11.014;2023-03-11T07:28:15;2.90;;;1.40;;
62863;SDS011;48954;59.950;11.014;2023-03-11T07:30:41;9.80;;;3.40;;
62863;SDS011;48954;59.950;11.014;2023-03-11T07:33:07;3.50;;;1.30;;
62863;SDS011;48954;59.950;11.014;2023-03-11T07:35:34;9.60;;;3.30;;
62863;SDS011;48954;59.950;11.014;2023-03-11T07:38:00;7.10;;;2.40;;
62863;SDS011;48954;59.950;11.014;2023-03-11T07:40:26;9.20;;;3.10;;
62863;SDS011;48954;59.950;11.014;2023-03-11T07:42:52;5.40;;;2.10;;
62863;SDS011;48954;59.950;11.014;2023-03-11T07:45:18;8.10;;;2.20;;
62863;SDS011;48954;59.950;11.014;2023-03-11T07:47:44;7.40;;;2.50;;
62863;SDS011;48954;59.950;11.014;2023-03-11T07:50:10;8.00;;;3.30;;
62863;SDS011;48954;59.950;11.014;2023-03-11T07:52:36;7.10;;;2.40;;
62863;SDS011;48954;59.950;11.014;2023-03-11T07:55:02;8.50;;;2.80;;
62863;SDS011;48954;59.950;11.014;2023-03-11T07:57:28;11.30;;;3.60;;
62863;SDS011;48954;59.950;11.014;2023-03-11T07:59:54;5.90;;;2.60;;
62863;SDS011;48954;59.950;11.014;2023-03-11T08:02:20;12.40;;;4.50;;
62863;SDS011;48954;59.950;11.014;2023-03-11T08:04:46;10.40;;;4.00;;
62863;SDS011;48954;59.950;11.014;2023-03-11T08:07:12;9.80;;;3.40;;
62863;SDS011;48954;59.950;11.014;2023-03-11T08:09:38;7.50;;;2.40;;
62863;SDS011;48954;59.950;11.014;2023-03-11T08:12:09;10.40;;;3.70;;
62863;SDS011;48954;59.950;11.014;2023-03-11T08:14:35;7.40;;;4.10;;
62863;SDS011;48954;59.950;11.014;2023-03-11T08:17:02;11.70;;;4.10;;
62863;SDS011;48954;59.950;11.014;2023-03-11T08:19:29;9.40;;;3.30;;
62863;SDS011;48954;59.950;11.014;2023-03-11T08:21:55;11.60;;;4.90;;
62863;SDS011;48954;59.950;11.014;2023-03-11T08:24:21;10.20;;;4.80;;
62863;SDS011;48954;59.950;11.014;2023-03-11T08:26:49;13.80;;;5.10;;
62863;SDS011;48954;59.950;11.014;2023-03-11T08:29:16;14.70;;;6.00;;
62863;SDS011;48954;59.950;11.014;2023-03-11T08:31:43;11.50;;;4.30;;
62863;SDS011;48954;59.950;11.014;2023-03-11T08:34:09;18.70;;;6.80;;
62863;SDS011;48954;59.950;11.014;2023-03-11T08:36:36;12.50;;;4.90;;
62863;SDS011;48954;59.950;11.014;2023-03-11T08:39:02;11.60;;;3.40;;
62863;SDS011;48954;59.950;11.014;2023-03-11T08:41:30;16.90;;;6.70;;
62863;SDS011;48954;59.950;11.014;2023-03-11T08:43:56;11.80;;;5.40;;
62863;SDS011;48954;59.950;11.014;2023-03-11T08:46:27;8.30;;;3.80;;
62863;SDS011;48954;59.950;11.014;2023-03-11T08:48:55;13.00;;;4.50;;
62863;SDS011;48954;59.950;11.014;2023-03-11T08:51:23;14.30;;;6.00;;
62863;SDS011;48954;59.950;11.014;2023-03-11T08:53:49;8.00;;;3.90;;
62863;SDS011;48954;59.950;11.014;2023-03-11T08:56:16;9.10;;;4.20;;
62863;SDS011;48954;59.950;11.014;2023-03-11T08:58:43;9.50;;;4.30;;
62863;SDS011;48954;59.950;11.014;2023-03-11T09:01:10;12.40;;;4.50;;
62863;SDS011;48954;59.950;11.014;2023-03-11T09:03:37;14.60;;;5.00;;
62863;SDS011;48954;59.950;11.014;2023-03-11T09:06:05;18.10;;;5.20;;
62863;SDS011;48954;59.950;11.014;2023-03-11T09:08:34;14.90;;;5.60;;
62863;SDS011;48954;59.950;11.014;2023-03-11T09:11:00;13.40;;;5.60;;
62863;SDS011;48954;59.950;11.014;2023-03-11T09:13:29;11.70;;;4.80;;
62863;SDS011;48954;59.950;11.014;2023-03-11T09:15:54;15.10;;;6.40;;
62863;SDS011;48954;59.950;11.014;2023-03-11T09:18:20;13.90;;;5.90;;
62863;SDS011;48954;59.950;11.014;2023-03-11T09:20:46;15.00;;;7.30;;
62863;SDS011;48954;59.950;11.014;2023-03-11T09:23:14;14.50;;;7.10;;
62863;SDS011;48954;59.950;11.014;2023-03-11T09:25:41;16.70;;;6.50;;
62863;SDS011;48954;59.950;11.014;2023-03-11T09:28:08;10.50;;;5.00;;
62863;SDS011;48954;59.950;11.014;2023-03-11T09:30:36;15.60;;;6.60;;
62863;SDS011;48954;59.950;11.014;2023-03-11T09:33:04;11.60;;;5.80;;
62863;SDS011;48954;59.950;11.014;2023-03-11T09:35:30;13.20;;;6.70;;
62863;SDS011;48954;59.950;11.014;2023-03-11T09:37:55;13.00;;;6.10;;
62863;SDS011;48954;59.950;11.014;2023-03-11T09:40:22;8.40;;;3.90;;
62863;SDS011;48954;59.950;11.014;2023-03-11T09:43:02;12.60;;;5.60;;
62863;SDS011;48954;59.950;11.014;2023-03-11T09:45:33;10.90;;;4.90;;
62863;SDS011;48954;59.950;11.014;2023-03-11T09:48:11;9.60;;;4.70;;
62863;SDS011;48954;59.950;11.014;2023-03-11T09:50:59;14.10;;;6.70;;
62863;SDS011;48954;59.950;11.014;2023-03-11T09:56:10;16.70;;;6.30;;
62863;SDS011;48954;59.950;11.014;2023-03-11T09:58:44;14.10;;;6.60;;
62863;SDS011;48954;59.950;11.014;2023-03-11T10:01:25;10.20;;;3.90;;
62863;SDS011;48954;59.950;11.014;2023-03-11T10:03:55;10.20;;;5.30;;
62863;SDS011;48954;59.950;11.014;2023-03-11T10:06:29;15.90;;;5.70;;
62863;SDS011;48954;59.950;11.014;2023-03-11T10:11:49;16.50;;;8.00;;
62863;SDS011;48954;59.950;11.014;2023-03-11T10:26:27;17.00;;;7.60;;
62863;SDS011;48954;59.950;11.014;2023-03-11T10:31:35;13.90;;;6.80;;
62863;SDS011;48954;59.950;11.014;2023-03-11T10:34:16;14.00;;;6.20;;
62863;SDS011;48954;59.950;11.014;2023-03-11T10:36:58;17.30;;;7.80;;
62863;SDS011;48954;59.950;11.014;2023-03-11T10:39:30;18.60;;;7.10;;
62863;SDS011;48954;59.950;11.014;2023-03-11T10:42:01;17.80;;;8.70;;
62863;SDS011;48954;59.950;11.014;2023-03-11T10:47:02;13.60;;;6.90;;
62863;SDS011;48954;59.950;11.014;2023-03-11T10:49:28;15.50;;;8.20;;
62863;SDS011;48954;59.950;11.014;2023-03-11T10:51:54;13.30;;;5.90;;
62863;SDS011;48954;59.950;11.014;2023-03-11T10:57:00;26.40;;;8.60;;
62863;SDS011;48954;59.950;11.014;2023-03-11T10:59:32;18.90;;;8.00;;
62863;SDS011;48954;59.950;11.014;2023-03-11T11:02:01;17.50;;;7.90;;
62863;SDS011;48954;59.950;11.014;2023-03-11T11:07:42;17.90;;;7.80;;
62863;SDS011;48954;59.950;11.014;2023-03-11T11:10:17;18.20;;;9.00;;
62863;SDS011;48954;59.950;11.014;2023-03-11T11:13:01;11.70;;;4.60;;
62863;SDS011;48954;59.950;11.014;2023-03-11T11:15:55;16.90;;;7.40;;
62863;SDS011;48954;59.950;11.014;2023-03-11T11:18:43;20.60;;;8.70;;
62863;SDS011;48954;59.950;11.014;2023-03-11T11:21:30;11.20;;;5.50;;
62863;SDS011;48954;59.950;11.014;2023-03-11T11:24:13;14.40;;;6.50;;
62863;SDS011;48954;59.950;11.014;2023-03-11T11:26:39;30.10;;;7.20;;
62863;SDS011;48954;59.950;11.014;2023-03-11T11:29:25;13.10;;;6.90;;
62863;SDS011;48954;59.950;11.014;2023-03-11T11:31:52;13.90;;;6.40;;
62863;SDS011;48954;59.950;11.014;2023-03-11T11:34:52;15.30;;;5.90;;
62863;SDS011;48954;59.950;11.014;2023-03-11T11:37:37;13.90;;;7.40;;
62863;SDS011;48954;59.950;11.014;2023-03-11T11:40:20;12.70;;;5.40;;
62863;SDS011;48954;59.950;11.014;2023-03-11T11:53:51;15.60;;;4.90;;
62863;SDS011;48954;59.950;11.014;2023-03-11T11:56:25;16.30;;;5.90;;
62863;SDS011;48954;59.950;11.014;2023-03-11T11:58:51;11.40;;;5.20;;
62863;SDS011;48954;59.950;11.014;2023-03-11T12:01:29;17.00;;;6.20;;
62863;SDS011;48954;59.950;11.014;2023-03-11T12:09:51;15.60;;;6.10;;
62863;SDS011;48954;59.950;11.014;2023-03-11T12:12:30;13.00;;;7.00;;
62863;SDS011;48954;59.950;11.014;2023-03-11T12:15:06;13.30;;;6.50;;
62863;SDS011;48954;59.950;11.014;2023-03-11T12:17:41;19.00;;;7.20;;
62863;SDS011;48954;59.950;11.014;2023-03-11T12:22:59;14.90;;;6.90;;
62863;SDS011;48954;59.950;11.014;2023-03-11T12:26:00;15.30;;;7.60;;
62863;SDS011;48954;59.950;11.014;2023-03-11T12:28:44;12.20;;;6.00;;
62863;SDS011;48954;59.950;11.014;2023-03-11T12:31:13;13.70;;;6.00;;
62863;SDS011;48954;59.950;11.014;2023-03-11T12:33:41;12.00;;;5.70;;
62863;SDS011;48954;59.950;11.014;2023-03-11T12:36:28;14.00;;;7.40;;
62863;SDS011;48954;59.950;11.014;2023-03-11T12:39:00;14.00;;;6.40;;
62863;SDS011;48954;59.950;11.014;2023-03-11T12:41:37;17.80;;;7.30;;
62863;SDS011;48954;59.950;11.014;2023-03-11T12:44:19;3.70;;;2.00;;
62863;SDS011;48954;59.950;11.014;2023-03-11T12:46:58;7.10;;;3.50;;
62863;SDS011;48954;59.950;11.014;2023-03-11T12:49:25;9.00;;;3.50;;
62863;SDS011;48954;59.950;11.014;2023-03-11T12:52:00;6.10;;;3.00;;
62863;SDS011;48954;59.950;11.014;2023-03-11T12:54:47;3.50;;;1.80;;
62863;SDS011;48954;59.950;11.014;2023-03-11T12:57:34;6.70;;;2.40;;
62863;SDS011;48954;59.950;11.014;2023-03-11T13:00:12;7.50;;;3.40;;
62863;SDS011;48954;59.950;11.014;2023-03-11T13:02:55;5.30;;;2.30;;
62863;SDS011;48954;59.950;11.014;2023-03-11T13:08:49;5.70;;;2.40;;
62863;SDS011;48954;59.950;11.014;2023-03-11T13:11:32;6.10;;;3.10;;
62863;SDS011;48954;59.950;11.014;2023-03-11T13:16:48;10.80;;;3.60;;
62863;SDS011;48954;59.950;11.014;2023-03-11T13:21:50;9.70;;;3.50;;
62863;SDS011;48954;59.950;11.014;2023-03-11T13:27:04;12.30;;;6.00;;
62863;SDS011;48954;59.950;11.014;2023-03-11T13:29:52;15.20;;;6.80;;
62863;SDS011;48954;59.950;11.014;2023-03-11T13:33:01;6.80;;;3.60;;
62863;SDS011;48954;59.950;11.014;2023-03-11T13:41:18;7.60;;;3.20;;
62863;SDS011;48954;59.950;11.014;2023-03-11T13:43:54;9.40;;;3.80;;
62863;SDS011;48954;59.950;11.014;2023-03-11T13:46:30;15.40;;;6.00;;
62863;SDS011;48954;59.950;11.014;2023-03-11T13:49:03;7.30;;;3.30;;
62863;SDS011;48954;59.950;11.014;2023-03-11T13:51:43;8.70;;;3.10;;
62863;SDS011;48954;59.950;11.014;2023-03-11T13:57:02;12.30;;;4.80;;
62863;SDS011;48954;59.950;11.014;2023-03-11T13:59:31;7.90;;;3.50;;
62863;SDS011;48954;59.950;11.014;2023-03-11T14:02:20;11.70;;;4.70;;
62863;SDS011;48954;59.950;11.014;2023-03-11T14:04:49;7.60;;;2.90;;
62863;SDS011;48954;59.950;11.014;2023-03-11T14:07:25;13.10;;;4.80;;
62863;SDS011;48954;59.950;11.014;2023-03-11T14:12:41;8.80;;;3.90;;
62863;SDS011;48954;59.950;11.014;2023-03-11T14:15:11;5.00;;;3.00;;
62863;SDS011;48954;59.950;11.014;2023-03-11T14:17:40;7.50;;;3.80;;
62863;SDS011;48954;59.950;11.014;2023-03-11T14:22:35;7.90;;;3.50;;
62863;SDS011;48954;59.950;11.014;2023-03-11T14:25:05;4.80;;;2.70;;
62863;SDS011;48954;59.950;11.014;2023-03-11T14:27:38;13.40;;;4.90;;
62863;SDS011;48954;59.950;11.014;2023-03-11T14:30:16;9.00;;;4.00;;
62863;SDS011;48954;59.950;11.014;2023-03-11T14:32:53;11.30;;;4.10;;
62863;SDS011;48954;59.950;11.014;2023-03-11T14:35:31;11.30;;;4.60;;
62863;SDS011;48954;59.950;11.014;2023-03-11T14:37:58;9.50;;;4.70;;
62863;SDS011;48954;59.950;11.014;2023-03-11T14:40:28;7.90;;;3.70;;
62863;SDS011;48954;59.950;11.014;2023-03-11T14:43:01;19.00;;;9.90;;
62863;SDS011;48954;59.950;11.014;2023-03-11T14:45:32;7.80;;;4.10;;
62863;SDS011;48954;59.950;11.014;2023-03-11T14:51:00;8.50;;;4.30;;
62863;SDS011;48954;59.950;11.014;2023-03-11T14:53:41;7.90;;;4.10;;
62863;SDS011;48954;59.950;11.014;2023-03-11T14:56:20;6.60;;;3.60;;
62863;SDS011;48954;59.950;11.014;2023-03-11T14:58:59;6.60;;;3.20;;
62863;SDS011;48954;59.950;11.014;2023-03-11T15:01:46;7.50;;;3.10;;
62863;SDS011;48954;59.950;11.014;2023-03-11T15:04:35;7.60;;;3.30;;
62863;SDS011;48954;59.950;11.014;2023-03-11T15:07:07;8.90;;;4.10;;
62863;SDS011;48954;59.950;11.014;2023-03-11T15:09:38;9.00;;;3.50;;
62863;SDS011;48954;59.950;11.014;2023-03-11T15:12:06;10.40;;;3.80;;
62863;SDS011;48954;59.950;11.014;2023-03-11T15:14:53;9.30;;;3.50;;
62863;SDS011;48954;59.950;11.014;2023-03-11T15:17:25;6.40;;;4.00;;
62863;SDS011;48954;59.950;11.014;2023-03-11T15:19:52;8.70;;;4.00;;
62863;SDS011;48954;59.950;11.014;2023-03-11T15:24:47;6.40;;;3.60;;
62863;SDS011;48954;59.950;11.014;2023-03-11T15:27:22;8.10;;;3.80;;
62863;SDS011;48954;59.950;11.014;2023-03-11T15:29:51;9.30;;;4.20;;
62863;SDS011;48954;59.950;11.014;2023-03-11T15:37:33;7.30;;;3.80;;
62863;SDS011;48954;59.950;11.014;2023-03-11T15:42:49;2.80;;;1.20;;
62863;SDS011;48954;59.950;11.014;2023-03-11T15:45:44;1.80;;;0.80;;
62863;SDS011;48954;59.950;11.014;2023-03-11T15:48:11;5.40;;;0.90;;
62863;SDS011;48954;59.950;11.014;2023-03-11T15:53:20;2.60;;;0.80;;
62863;SDS011;48954;59.950;11.014;2023-03-11T15:55:48;2.90;;;1.20;;
62863;SDS011;48954;59.950;11.014;2023-03-11T15:58:14;3.80;;;1.30;;
62863;SDS011;48954;59.950;11.014;2023-03-11T16:00:44;4.20;;;1.50;;
62863;SDS011;48954;59.950;11.014;2023-03-11T16:03:12;2.80;;;0.90;;
62863;SDS011;48954;59.950;11.014;2023-03-11T16:05:38;2.20;;;0.70;;
62863;SDS011;48954;59.950;11.014;2023-03-11T16:08:04;3.20;;;1.20;;
62863;SDS011;48954;59.950;11.014;2023-03-11T16:10:30;2.50;;;0.70;;
62863;SDS011;48954;59.950;11.014;2023-03-11T16:12:56;3.90;;;0.70;;
62863;SDS011;48954;59.950;11.014;2023-03-11T16:15:29;1.90;;;0.60;;
62863;SDS011;48954;59.950;11.014;2023-03-11T16:17:59;2.50;;;1.20;;
62863;SDS011;48954;59.950;11.014;2023-03-11T16:20:33;8.80;;;2.30;;
62863;SDS011;48954;59.950;11.014;2023-03-11T16:23:05;3.10;;;1.00;;
62863;SDS011;48954;59.950;11.014;2023-03-11T16:25:37;1.20;;;0.50;;